Time;durP1;ratioP1;P1;durP2;ratioP2;P2;SDS_P1;SDS_P2;PMS_P1;PMS_P2;Temp;Humidity;BMP_temperature;BMP_pressure;BME280_temperature;BME280_humidity;BME280_pressure;Samples;Min_cycle;Max_cycle;Signal;HPM_P1;HPM_P2
2021/04/29 00:02:09;;;;;;;40.17;18.52;;;;;;;4.13;70.05;101165.70;1714227;82;21477;-60
2021/04/29 00:05:17;;;;;;;43.28;18.07;;;;;;;4.11;70.11;101164.94;1713790;82;21381;-59
2021/04/29 00:08:25;;;;;;;39.63;17.65;;;;;;;4.08;70.12;101165.17;1714370;82;21183;-60
2021/04/29 00:11:30;;;;;;;34.88;15.72;;;;;;;4.05;70.09;101159.98;1714003;82;21403;-61
2021/04/29 00:14:35;;;;;;;36.10;17.98;;;;;;;4.03;69.93;101163.29;1715196;82;21403;-60
2021/04/29 00:17:41;;;;;;;34.05;17.15;;;;;;;3.99;69.87;101161.81;1719990;81;21227;-60
2021/04/29 00:20:48;;;;;;;38.23;17.73;;;;;;;3.96;70.05;101167.46;1714630;79;21899;-60
2021/04/29 00:23:54;;;;;;;40.92;19.07;;;;;;;3.95;70.16;101167.06;1713444;82;21347;-60
2021/04/29 00:27:01;;;;;;;38.48;19.00;;;;;;;3.91;70.18;101171.00;1751029;81;21218;-60
2021/04/29 00:30:07;;;;;;;42.80;19.25;;;;;;;3.89;70.28;101175.66;1750688;82;21882;-59
2021/04/29 00:33:14;;;;;;;55.17;21.30;;;;;;;3.87;70.36;101172.70;1750712;82;21332;-60
2021/04/29 00:36:20;;;;;;;48.17;19.85;;;;;;;3.81;70.46;101174.00;1750635;82;21241;-61
2021/04/29 00:39:27;;;;;;;45.05;20.90;;;;;;;3.77;70.68;101184.70;1750640;82;21218;-60
2021/04/29 00:42:33;;;;;;;42.78;20.23;;;;;;;3.75;70.74;101173.11;1750670;82;21210;-61
2021/04/29 00:45:40;;;;;;;42.60;20.85;;;;;;;3.75;70.90;101183.94;1750595;82;21363;-60
2021/04/29 00:48:46;;;;;;;41.88;18.60;;;;;;;3.73;70.83;101180.95;1750714;82;21249;-60
2021/04/29 00:51:54;;;;;;;34.08;17.98;;;;;;;3.70;70.92;101185.24;1750453;82;21514;-60
2021/04/29 00:55:00;;;;;;;32.20;17.70;;;;;;;3.66;71.00;101183.27;1750658;82;21363;-61
2021/04/29 00:58:07;;;;;;;37.33;16.90;;;;;;;3.62;70.93;101183.58;1750518;82;21418;-60
2021/04/29 01:01:13;;;;;;;34.58;16.48;;;;;;;3.48;71.10;101188.66;1750718;82;21277;-59
2021/04/29 01:04:33;;;;;;;31.90;14.90;;;;;;;3.44;71.36;101192.55;1750682;82;21359;-60
2021/04/29 01:07:42;;;;;;;35.63;15.63;;;;;;;3.42;71.39;101194.53;1750631;82;21202;-60
2021/04/29 01:10:55;;;;;;;34.43;16.07;;;;;;;3.41;71.51;101187.88;1750523;82;21318;-59
2021/04/29 01:14:06;;;;;;;26.77;15.00;;;;;;;3.40;71.64;101184.29;1750683;82;21277;-59
2021/04/29 01:17:11;;;;;;;30.85;17.07;;;;;;;3.42;71.67;101182.34;1734976;82;21324;-60
2021/04/29 01:20:25;;;;;;;32.85;18.92;;;;;;;3.42;71.73;101188.23;1730843;82;21832;-60
2021/04/29 01:24:11;;;;;;;30.23;17.20;;;;;;;3.41;71.80;101181.95;1755047;79;21417;-61
2021/04/29 01:27:18;;;;;;;29.90;15.72;;;;;;;3.40;71.84;101184.77;1747507;81;21255;-60
2021/04/29 01:30:24;;;;;;;35.60;15.08;;;;;;;3.37;71.83;101191.28;1756393;81;21235;-59
2021/04/29 01:33:30;;;;;;;26.95;14.55;;;;;;;3.36;72.04;101186.86;1755801;81;21702;-59
2021/04/29 01:36:37;;;;;;;28.25;14.80;;;;;;;3.37;72.08;101179.11;1755701;81;21196;-59
2021/04/29 01:39:45;;;;;;;32.53;15.15;;;;;;;3.37;72.03;101179.11;1740645;81;21365;-60
2021/04/29 01:42:53;;;;;;;32.50;15.10;;;;;;;3.36;71.98;101171.97;1756278;81;21215;-60
2021/04/29 01:45:59;;;;;;;24.72;14.05;;;;;;;3.35;71.86;101181.05;1755656;81;21314;-60
2021/04/29 01:49:06;;;;;;;21.55;13.90;;;;;;;3.32;71.77;101178.56;1756124;81;21187;-61
2021/04/29 01:52:12;;;;;;;21.75;13.83;;;;;;;3.31;71.75;101180.91;1756477;81;21223;-60
2021/04/29 01:55:17;;;;;;;43.23;32.20;;;;;;;3.27;71.76;101186.14;1755960;81;21207;-59
2021/04/29 01:58:23;;;;;;;51.02;37.85;;;;;;;3.24;71.75;101174.19;1756124;81;21361;-60
2021/04/29 02:01:29;;;;;;;54.63;40.00;;;;;;;3.22;71.91;101177.48;1756056;81;21873;-61
2021/04/29 02:04:35;;;;;;;60.50;42.15;;;;;;;3.20;71.90;101183.52;1756019;81;21775;-60
2021/04/29 02:07:40;;;;;;;60.95;42.05;;;;;;;3.20;71.86;101180.81;1755887;81;21886;-60
2021/04/29 02:10:46;;;;;;;69.07;41.63;;;;;;;3.19;71.88;101191.75;1755841;81;21281;-60
2021/04/29 02:13:54;;;;;;;55.60;39.03;;;;;;;3.19;71.90;101187.69;1755974;81;21219;-60
2021/04/29 02:17:00;;;;;;;47.35;31.82;;;;;;;3.17;71.78;101196.39;1755931;81;21705;-60
2021/04/29 02:20:06;;;;;;;39.63;25.00;;;;;;;3.11;71.72;101194.97;1756389;81;21223;-60
2021/04/29 02:23:21;;;;;;;31.37;18.25;;;;;;;3.10;71.75;101191.90;1756092;81;21208;-60
2021/04/29 02:26:26;;;;;;;32.42;16.32;;;;;;;3.09;71.78;101192.89;1690736;85;21225;-60
2021/04/29 02:29:32;;;;;;;26.77;15.13;;;;;;;3.11;71.88;101197.67;1755594;81;21238;-60
2021/04/29 02:32:37;;;;;;;29.52;14.70;;;;;;;3.12;71.91;101198.08;1755804;81;21338;-60
2021/04/29 02:35:44;;;;;;;32.80;15.03;;;;;;;3.13;71.94;101205.67;1755758;81;21234;-60
2021/04/29 02:38:53;;;;;;;29.75;14.28;;;;;;;3.14;71.95;101213.69;1756003;81;22186;-60
2021/04/29 02:41:56;;;;;;;25.23;14.07;;;;;;;3.14;71.95;101208.27;1755854;81;21191;-59
2021/04/29 02:45:03;;;;;;;29.32;15.13;;;;;;;3.15;71.96;101212.73;1755904;81;21219;-60
2021/04/29 02:48:11;;;;;;;29.70;14.18;;;;;;;3.14;72.03;101212.33;1755755;81;21333;-60
2021/04/29 02:51:16;;;;;;;26.33;13.95;;;;;;;3.16;72.04;101221.21;1755706;81;21230;-60
2021/04/29 02:54:22;;;;;;;26.20;14.35;;;;;;;3.18;72.06;101223.80;1755678;81;21692;-60
2021/04/29 02:57:30;;;;;;;28.25;15.63;;;;;;;3.18;72.09;101217.92;1739752;81;21199;-60
2021/04/29 03:00:37;;;;;;;29.82;14.60;;;;;;;3.20;72.06;101217.81;1755682;81;21196;-60
2021/04/29 03:03:42;;;;;;;32.50;14.87;;;;;;;3.22;71.93;101225.34;1755782;81;21266;-61
2021/04/29 03:06:48;;;;;;;28.00;14.38;;;;;;;3.23;71.92;101226.58;1755635;81;21195;-62
2021/04/29 03:09:53;;;;;;;29.80;14.68;;;;;;;3.28;71.88;101231.66;1755862;81;21179;-62
2021/04/29 03:12:59;;;;;;;41.80;16.37;;;;;;;3.30;71.84;101233.27;1755851;81;21234;-61
2021/04/29 03:16:04;;;;;;;38.83;16.77;;;;;;;3.35;71.88;101235.17;1755890;81;21423;-61
2021/04/29 03:19:10;;;;;;;72.03;34.20;;;;;;;3.42;71.75;101236.47;1755802;81;21214;-61
2021/04/29 03:22:16;;;;;;;65.08;32.20;;;;;;;3.46;71.68;101236.61;1755642;81;21214;-61
2021/04/29 03:25:22;;;;;;;58.42;30.57;;;;;;;3.51;71.68;101237.63;1755435;80;21360;-61
2021/04/29 03:28:29;;;;;;;50.08;27.30;;;;;;;3.57;71.52;101234.52;1755760;81;21216;-62
2021/04/29 03:31:35;;;;;;;39.88;22.25;;;;;;;3.62;71.44;101236.38;1755364;81;21258;-61
2021/04/29 03:34:42;;;;;;;40.43;19.17;;;;;;;3.68;71.32;101231.38;1755645;81;21259;-63
2021/04/29 03:37:50;;;;;;;29.98;17.20;;;;;;;3.77;71.30;101229.86;1755546;81;21306;-62
2021/04/29 03:40:55;;;;;;;29.57;14.73;;;;;;;3.85;71.31;101225.62;1755687;81;21609;-63
2021/04/29 03:44:02;;;;;;;24.55;14.10;;;;;;;3.95;71.22;101229.36;1755583;81;21274;-62
2021/04/29 03:47:10;;;;;;;27.25;13.48;;;;;;;4.02;70.94;101233.36;1755782;81;21187;-62
2021/04/29 03:50:17;;;;;;;23.85;12.82;;;;;;;4.07;70.66;101220.34;1755699;81;21230;-62
2021/04/29 03:53:23;;;;;;;25.82;13.45;;;;;;;4.16;70.56;101230.48;1755537;81;21231;-62
2021/04/29 03:56:28;;;;;;;28.73;13.65;;;;;;;4.26;70.43;101230.19;1755494;81;21261;-63
2021/04/29 03:59:39;;;;;;;21.73;13.38;;;;;;;4.38;70.28;101226.53;1755400;81;21210;-62
2021/04/29 04:02:45;;;;;;;27.67;14.03;;;;;;;4.48;70.00;101226.22;1755630;81;21203;-63
2021/04/29 04:05:50;;;;;;;35.17;14.95;;;;;;;4.61;69.71;101235.12;1755739;81;21297;-63
2021/04/29 04:08:56;;;;;;;27.10;13.62;;;;;;;4.75;69.41;101234.08;1755512;81;21203;-63
2021/04/29 04:12:03;;;;;;;26.97;14.43;;;;;;;4.86;69.08;101233.24;1755523;81;21835;-62
2021/04/29 04:15:10;;;;;;;26.73;14.00;;;;;;;4.99;68.74;101240.81;1755579;81;21843;-62
2021/04/29 04:18:16;;;;;;;21.82;13.20;;;;;;;5.10;68.42;101242.19;1755621;81;21230;-62
2021/04/29 04:21:22;;;;;;;23.10;13.78;;;;;;;5.20;68.12;101235.91;1755530;81;21250;-62
2021/04/29 04:24:27;;;;;;;26.55;13.50;;;;;;;5.33;67.98;101237.16;1755855;81;21214;-62
2021/04/29 04:27:32;;;;;;;29.32;14.40;;;;;;;5.41;67.79;101236.94;1756189;80;21320;-62
2021/04/29 04:30:38;;;;;;;38.38;16.42;;;;;;;5.54;67.81;101236.81;1756179;81;21266;-63
2021/04/29 04:33:43;;;;;;;35.33;16.57;;;;;;;5.67;67.56;101234.84;1755715;81;21770;-63
2021/04/29 04:36:49;;;;;;;32.23;15.50;;;;;;;5.81;67.59;101238.18;1756563;81;21258;-63
2021/04/29 04:39:56;;;;;;;29.32;14.53;;;;;;;5.97;67.48;101229.66;1756114;81;21203;-63
2021/04/29 04:43:02;;;;;;;24.63;12.70;;;;;;;6.15;67.11;101233.59;1755653;81;21242;-63
2021/04/29 04:46:09;;;;;;;22.52;11.70;;;;;;;6.31;66.60;101231.30;1755913;81;21234;-63
2021/04/29 04:49:15;;;;;;;21.48;12.20;;;;;;;6.46;66.04;101228.67;1755656;81;21593;-62
2021/04/29 04:52:21;;;;;;;17.10;11.08;;;;;;;6.61;65.64;101223.28;1754686;81;21222;-64
2021/04/29 04:55:26;;;;;;;22.13;11.73;;;;;;;6.76;65.35;101223.84;1756116;81;21238;-64
2021/04/29 04:58:32;;;;;;;20.82;12.20;;;;;;;6.91;65.07;101226.63;1755634;81;21253;-63
2021/04/29 05:01:38;;;;;;;26.02;12.03;;;;;;;7.05;64.95;101220.36;1766409;79;21367;-64
2021/04/29 05:04:44;;;;;;;20.50;11.60;;;;;;;7.20;64.84;101224.45;1801320;79;21405;-62
2021/04/29 05:07:51;;;;;;;21.60;11.20;;;;;;;7.36;64.81;101222.60;1803313;79;21370;-62
2021/04/29 05:10:56;;;;;;;23.45;9.35;;;;;;;7.51;64.56;101223.50;1803972;79;21386;-61
2021/04/29 05:14:04;;;;;;;17.05;9.80;;;;;;;7.68;64.42;101220.63;1798488;79;21213;-61
2021/04/29 05:17:10;;;;;;;21.60;10.25;;;;;;;7.85;64.02;101223.21;1801441;79;21213;-61
2021/04/29 05:20:17;;;;;;;19.25;9.83;;;;;;;8.02;63.61;101226.63;1801951;79;21951;-60
2021/04/29 05:23:23;;;;;;;17.80;8.75;;;;;;;8.17;63.27;101227.95;1798001;79;21319;-61
2021/04/29 05:26:29;;;;;;;17.23;7.97;;;;;;;8.34;62.82;101231.42;1772626;80;21406;-61
2021/04/29 05:29:35;;;;;;;15.78;8.00;;;;;;;8.50;62.39;101223.55;1735540;82;21290;-61
2021/04/29 05:32:40;;;;;;;13.72;8.33;;;;;;;8.65;62.21;101231.16;1736421;82;21256;-60
2021/04/29 05:35:49;;;;;;;17.50;8.43;;;;;;;8.80;62.02;101237.91;1743507;81;21288;-61
2021/04/29 05:38:57;;;;;;;23.10;6.10;;;;;;;8.96;61.54;101231.36;1765824;81;21224;-62
2021/04/29 05:42:03;;;;;;;9.60;4.78;;;;;;;9.12;60.81;101229.92;1766632;81;21333;-60
2021/04/29 05:45:09;;;;;;;9.20;4.65;;;;;;;9.29;60.22;101226.44;1766637;80;21240;-61
2021/04/29 05:48:15;;;;;;;7.97;4.75;;;;;;;9.42;58.51;101221.00;1765831;81;21209;-61
2021/04/29 05:51:20;;;;;;;8.73;4.33;;;;;;;9.61;58.72;101223.67;1736511;81;21224;-61
2021/04/29 05:54:27;;;;;;;8.65;4.42;;;;;;;9.81;57.87;101222.61;1739885;81;21225;-61
2021/04/29 05:57:32;;;;;;;6.67;4.28;;;;;;;9.96;57.05;101217.47;1742143;81;21351;-62
2021/04/29 06:00:39;;;;;;;8.30;3.90;;;;;;;10.09;56.83;101220.26;1717504;82;21363;-61
2021/04/29 06:03:48;;;;;;;5.05;3.55;;;;;;;10.25;56.07;101227.80;1715280;83;21218;-60
2021/04/29 06:06:53;;;;;;;7.65;3.83;;;;;;;10.38;55.48;101228.30;1742207;81;21401;-61
2021/04/29 06:09:54;;;;;;;4.72;3.27;;;;;;;10.54;54.41;101218.36;1719687;82;21209;-61
2021/04/29 06:13:01;;;;;;;6.05;4.00;;;;;;;10.72;52.68;101223.02;1766610;81;21198;-62
2021/04/29 06:16:10;;;;;;;6.55;3.37;;;;;;;10.86;52.29;101218.35;1745101;81;22067;-61
2021/04/29 06:19:17;;;;;;;5.42;3.25;;;;;;;10.95;51.60;101221.01;1735818;81;21181;-61
2021/04/29 06:22:22;;;;;;;7.67;3.52;;;;;;;11.06;51.46;101222.63;1751160;81;21382;-62
2021/04/29 06:25:31;;;;;;;8.45;4.15;;;;;;;11.18;49.90;101226.33;1739588;80;21217;-59
2021/04/29 06:28:36;;;;;;;6.12;3.15;;;;;;;11.28;49.47;101228.97;1765852;78;21209;-61
2021/04/29 06:31:43;;;;;;;6.12;2.95;;;;;;;11.34;47.64;101231.06;1780189;79;21251;-60
2021/04/29 06:34:48;;;;;;;10.82;3.58;;;;;;;11.42;48.54;101223.77;1798874;79;21181;-61
2021/04/29 06:37:54;;;;;;;5.42;3.10;;;;;;;11.52;48.72;101222.30;1793827;79;21247;-62
2021/04/29 06:41:00;;;;;;;3.65;2.70;;;;;;;11.60;48.42;101219.61;1735060;82;21231;-60
2021/04/29 06:44:05;;;;;;;5.20;3.40;;;;;;;11.67;48.13;101217.98;1723187;83;21604;-61
2021/04/29 06:47:17;;;;;;;5.65;3.50;;;;;;;11.76;47.67;101219.23;1707417;84;21414;-60
2021/04/29 06:50:22;;;;;;;4.83;2.85;;;;;;;11.85;47.59;101220.13;1771704;80;21474;-59
2021/04/29 06:53:29;;;;;;;8.38;3.62;;;;;;;11.94;46.84;101213.64;1771671;81;21370;-62
2021/04/29 06:56:34;;;;;;;4.33;2.90;;;;;;;12.05;45.93;101203.74;1772291;81;21291;-61
2021/04/29 06:59:42;;;;;;;6.72;3.75;;;;;;;12.13;44.69;101208.42;1771730;80;21379;-58
2021/04/29 07:02:49;;;;;;;6.17;3.30;;;;;;;12.20;44.65;101209.46;1771369;81;21683;-57
2021/04/29 07:05:56;;;;;;;10.32;3.40;;;;;;;12.29;44.28;101209.86;1785162;79;21339;-57
2021/04/29 07:09:02;;;;;;;4.53;3.27;;;;;;;12.39;44.00;101208.68;1786089;79;21178;-58
2021/04/29 07:12:06;;;;;;;3.98;2.83;;;;;;;12.49;44.09;101219.52;1802462;79;21379;-58
2021/04/29 07:15:14;;;;;;;5.12;3.05;;;;;;;12.53;42.70;101213.52;1803957;79;21359;-58
2021/04/29 07:18:20;;;;;;;7.50;3.55;;;;;;;12.58;42.58;101222.63;1803998;79;21216;-58
2021/04/29 07:21:27;;;;;;;4.67;3.85;;;;;;;12.63;42.90;101214.23;1803237;79;21354;-59
2021/04/29 07:24:33;;;;;;;6.37;3.70;;;;;;;12.72;42.68;101222.83;1792942;79;21385;-58
2021/04/29 07:27:38;;;;;;;7.50;3.42;;;;;;;12.73;43.11;101220.41;1802672;79;21884;-56
2021/04/29 07:30:51;;;;;;;11.30;3.22;;;;;;;12.79;43.79;101221.14;1776564;79;21888;-54
2021/04/29 07:33:56;;;;;;;4.12;2.92;;;;;;;12.89;44.11;101227.84;1745500;81;21475;-55
2021/04/29 07:37:07;;;;;;;4.12;3.02;;;;;;;12.93;44.28;101220.46;1749601;81;21280;-54
2021/04/29 07:40:11;;;;;;;6.08;3.60;;;;;;;13.03;44.29;101214.83;1736732;81;21864;-55
2021/04/29 07:43:18;;;;;;;5.33;2.80;;;;;;;13.11;43.51;101218.95;1747366;81;21569;-53
2021/04/29 07:46:23;;;;;;;5.08;2.95;;;;;;;13.26;43.71;101215.84;1753013;81;21536;-53
2021/04/29 07:49:30;;;;;;;5.47;3.80;;;;;;;13.37;42.98;101220.98;1699555;83;21328;-53
2021/04/29 07:52:37;;;;;;;9.83;3.17;;;;;;;13.44;43.01;101209.65;1750961;81;21224;-54
2021/04/29 07:55:43;;;;;;;6.00;3.17;;;;;;;13.48;42.62;101213.25;1757748;81;21225;-53
2021/04/29 07:58:49;;;;;;;11.45;3.25;;;;;;;13.50;42.89;101209.81;1748636;81;21209;-53
2021/04/29 08:01:55;;;;;;;6.87;3.35;;;;;;;13.54;42.73;101207.04;1745109;81;21334;-52
2021/04/29 08:05:02;;;;;;;7.10;3.33;;;;;;;13.58;41.95;101205.31;1692682;83;21241;-52
2021/04/29 08:08:09;;;;;;;5.72;3.50;;;;;;;13.63;42.28;101208.41;1756382;81;21325;-53
2021/04/29 08:11:16;;;;;;;9.63;3.30;;;;;;;13.70;41.45;101211.64;1688943;83;21387;-53
2021/04/29 08:14:26;;;;;;;8.75;3.67;;;;;;;13.70;41.17;101200.63;1750928;80;21245;-53
2021/04/29 08:17:32;;;;;;;8.10;3.37;;;;;;;13.71;41.56;101196.87;1701441;83;21264;-53
2021/04/29 08:20:46;;;;;;;6.03;3.60;;;;;;;13.73;41.20;101200.82;1748483;80;21349;-52
2021/04/29 08:23:57;;;;;;;5.22;3.33;;;;;;;13.77;41.60;101196.67;1716152;81;21391;-53
2021/04/29 08:27:03;;;;;;;4.83;3.90;;;;;;;13.87;41.47;101196.83;1727826;83;21347;-53
2021/04/29 08:30:09;;;;;;;6.90;3.95;;;;;;;13.96;40.50;101188.00;1758843;81;21916;-53
2021/04/29 08:33:13;;;;;;;5.92;3.58;;;;;;;13.94;39.68;101184.59;1765915;81;21486;-54
2021/04/29 08:36:18;;;;;;;5.92;3.87;;;;;;;13.93;40.34;101189.73;1766275;81;21232;-56
2021/04/29 08:39:25;;;;;;;6.42;3.80;;;;;;;13.96;39.54;101186.63;1764371;81;21243;-57
2021/04/29 08:42:31;;;;;;;8.20;4.37;;;;;;;13.99;40.38;101178.88;1736232;81;21231;-58
2021/04/29 08:45:37;;;;;;;6.05;3.77;;;;;;;14.08;41.37;101182.46;1735575;81;21770;-57
2021/04/29 08:48:43;;;;;;;8.40;3.95;;;;;;;14.14;39.04;101174.34;1733757;82;21208;-56
2021/04/29 08:51:49;;;;;;;5.72;3.85;;;;;;;14.16;39.33;101171.41;1734301;82;21209;-57
2021/04/29 08:54:56;;;;;;;8.25;4.20;;;;;;;14.23;39.98;101168.26;1734397;82;21228;-57
2021/04/29 08:58:01;;;;;;;5.58;3.87;;;;;;;14.30;40.02;101157.73;1734944;82;21212;-58
2021/04/29 09:01:10;;;;;;;9.65;3.92;;;;;;;14.40;39.71;101163.02;1735283;82;21244;-57
2021/04/29 09:04:18;;;;;;;11.65;3.75;;;;;;;14.45;40.29;101159.20;1735147;82;21233;-58
2021/04/29 09:07:25;;;;;;;6.17;3.50;;;;;;;14.52;40.58;101156.08;1735225;82;21197;-58
2021/04/29 09:10:35;;;;;;;4.30;3.45;;;;;;;14.60;40.23;101151.34;1735330;82;21232;-58
2021/04/29 09:13:40;;;;;;;5.67;3.47;;;;;;;14.63;39.43;101137.73;1735270;82;21697;-57
2021/04/29 09:16:51;;;;;;;9.20;3.85;;;;;;;14.68;40.72;101136.13;1735481;81;21308;-57
2021/04/29 09:19:58;;;;;;;6.42;4.15;;;;;;;14.82;41.41;101135.86;1734859;82;21229;-59
2021/04/29 09:23:18;;;;;;;4.53;3.72;;;;;;;14.92;41.33;101126.83;1735166;82;21299;-59
2021/04/29 09:26:24;;;;;;;7.62;4.00;;;;;;;15.05;41.45;101128.41;1735334;82;21313;-58
2021/04/29 09:29:29;;;;;;;5.83;3.37;;;;;;;15.16;42.38;101126.58;1733235;82;21741;-57
2021/04/29 09:32:42;;;;;;;11.97;3.75;;;;;;;15.22;41.17;101123.61;1749757;79;21250;-58
2021/04/29 09:35:51;;;;;;;5.50;3.60;;;;;;;15.24;40.96;101122.36;1770464;80;21374;-58
2021/04/29 09:39:06;;;;;;;7.97;3.30;;;;;;;15.29;40.92;101110.24;1770222;81;21413;-58
2021/04/29 09:42:12;;;;;;;11.93;3.67;;;;;;;15.39;41.03;101095.69;1769234;81;21217;-58
2021/04/29 09:45:32;;;;;;;8.65;3.12;;;;;;;15.52;40.25;101095.89;1770453;80;21419;-59
2021/04/29 09:48:44;;;;;;;5.78;2.92;;;;;;;15.60;39.31;101091.63;1770369;81;21406;-57
2021/04/29 09:51:48;;;;;;;5.28;2.87;;;;;;;15.70;39.30;101087.20;1770186;81;21884;-57
2021/04/29 09:54:56;;;;;;;7.60;3.10;;;;;;;15.77;38.89;101079.87;1770103;80;21739;-57
2021/04/29 09:58:18;;;;;;;6.92;3.60;;;;;;;15.81;38.01;101082.05;1770228;81;21378;-58
2021/04/29 10:01:24;;;;;;;5.97;3.35;;;;;;;15.81;37.86;101071.55;1779514;79;21342;-57
2021/04/29 10:04:31;;;;;;;5.28;3.37;;;;;;;15.83;37.38;101064.77;1778746;79;21367;-57
2021/04/29 10:07:37;;;;;;;10.53;6.03;;;;;;;15.92;37.13;101063.60;1803651;79;21829;-57
2021/04/29 10:10:43;;;;;;;6.12;3.65;;;;;;;16.04;37.87;101066.21;1803529;79;21755;-56
2021/04/29 10:13:50;;;;;;;6.85;3.20;;;;;;;16.16;38.42;101064.64;1776460;79;21877;-58
2021/04/29 10:16:55;;;;;;;6.17;3.08;;;;;;;16.33;39.35;101056.42;1735142;82;21208;-56
2021/04/29 10:20:04;;;;;;;7.28;3.08;;;;;;;16.53;39.92;101051.66;1735511;82;21410;-55
2021/04/29 10:23:17;;;;;;;5.70;3.02;;;;;;;16.70;38.68;101048.97;1721988;83;21230;-56
2021/04/29 10:26:17;;;;;;;5.53;2.83;;;;;;;16.87;38.32;101060.06;1721336;83;21415;-56
2021/04/29 10:29:24;;;;;;;4.08;2.72;;;;;;;16.99;37.47;101046.00;1728805;81;21375;-57
2021/04/29 10:32:29;;;;;;;5.92;3.05;;;;;;;17.12;36.41;101048.88;1807102;79;21836;-57
2021/04/29 10:35:35;;;;;;;7.15;2.92;;;;;;;17.10;35.61;101046.83;1750853;81;21366;-56
2021/04/29 10:38:42;;;;;;;3.58;2.60;;;;;;;17.11;37.15;101040.26;1767137;81;21247;-56
2021/04/29 10:41:50;;;;;;;7.67;2.75;;;;;;;17.19;36.06;101040.07;1766861;81;21398;-56
2021/04/29 10:44:59;;;;;;;4.25;2.90;;;;;;;17.33;36.37;101034.42;1766993;81;21271;-57
2021/04/29 10:48:16;;;;;;;4.12;2.50;;;;;;;17.57;37.46;101031.19;1766934;81;21211;-55
2021/04/29 10:51:23;;;;;;;12.43;2.90;;;;;;;17.77;35.06;101025.75;1766976;81;21717;-57
2021/04/29 10:54:31;;;;;;;4.47;2.60;;;;;;;17.90;34.41;101029.41;1766978;81;21291;-57
2021/04/29 10:57:37;;;;;;;4.80;2.80;;;;;;;17.93;34.06;101027.61;1745783;81;21205;-54
2021/04/29 11:00:45;;;;;;;6.80;2.95;;;;;;;18.05;34.83;101019.56;1656537;85;21877;-56
2021/04/29 11:03:53;;;;;;;6.17;2.67;;;;;;;18.21;35.63;101010.86;1664453;85;21405;-57
2021/04/29 11:06:58;;;;;;;7.15;2.75;;;;;;;18.41;34.99;101014.55;1759434;81;21224;-57
2021/04/29 11:10:13;;;;;;;4.40;2.67;;;;;;;18.62;34.29;101024.07;1738886;81;21387;-58
2021/04/29 11:13:26;;;;;;;4.28;2.90;;;;;;;18.82;32.97;101007.44;1761805;81;21220;-56
2021/04/29 11:16:31;;;;;;;13.05;2.95;;;;;;;18.94;32.42;101026.00;1756285;81;21778;-57
2021/04/29 11:20:03;;;;;;;6.00;2.60;;;;;;;18.99;32.29;101002.63;1765666;81;21243;-56
2021/04/29 11:23:09;;;;;;;4.83;2.87;;;;;;;19.06;31.18;100995.12;1765827;81;21216;-56
2021/04/29 11:26:17;;;;;;;6.55;2.87;;;;;;;19.19;31.60;100985.39;1765792;81;21193;-56
2021/04/29 11:29:23;;;;;;;3.77;2.92;;;;;;;19.30;31.09;100981.11;1765988;81;21196;-55
2021/04/29 11:32:28;;;;;;;5.28;3.35;;;;;;;19.40;31.64;100982.91;1766560;81;21764;-57
2021/04/29 11:35:43;;;;;;;6.03;3.25;;;;;;;19.36;32.19;100971.91;1785756;78;21197;-58
2021/04/29 11:39:04;;;;;;;5.92;3.58;;;;;;;19.43;30.55;100980.22;1793058;80;21773;-57
2021/04/29 11:42:10;;;;;;;11.25;3.50;;;;;;;19.37;31.37;100963.05;1790228;80;21296;-55
2021/04/29 11:45:22;;;;;;;5.50;3.30;;;;;;;19.55;31.89;100965.42;1781632;79;21390;-57
2021/04/29 11:48:33;;;;;;;6.42;3.77;;;;;;;19.75;30.87;100962.56;1792361;80;21386;-57
2021/04/29 11:51:41;;;;;;;4.37;3.25;;;;;;;19.75;30.17;100958.41;1775635;80;21192;-57
2021/04/29 11:54:56;;;;;;;5.28;3.05;;;;;;;19.76;30.12;100946.20;1791776;79;21189;-56
2021/04/29 11:58:15;;;;;;;5.10;3.70;;;;;;;19.81;29.76;100950.03;1792453;80;21316;-58
2021/04/29 12:01:22;;;;;;;5.25;3.75;;;;;;;19.91;30.31;100942.08;1775852;80;21849;-56
2021/04/29 12:04:31;;;;;;;7.50;3.35;;;;;;;20.03;30.31;100941.67;1765865;81;21392;-56
2021/04/29 12:07:50;;;;;;;6.60;3.58;;;;;;;20.08;30.28;100928.48;1766102;81;21367;-56
2021/04/29 12:11:10;;;;;;;5.50;2.87;;;;;;;20.12;30.69;100926.97;1778971;80;21354;-56
2021/04/29 12:14:19;;;;;;;4.05;3.15;;;;;;;20.11;30.05;100923.33;1781851;79;21734;-56
2021/04/29 12:17:26;;;;;;;5.35;2.60;;;;;;;20.10;30.02;100919.39;1779678;80;21825;-57
2021/04/29 12:20:33;;;;;;;5.90;2.90;;;;;;;20.13;29.72;100921.72;1779860;80;21196;-57
2021/04/29 12:23:40;;;;;;;3.08;2.52;;;;;;;20.17;29.46;100905.78;1784276;80;21328;-57
2021/04/29 12:26:49;;;;;;;4.28;2.37;;;;;;;20.07;29.95;100909.59;1760900;81;21220;-56
2021/04/29 12:30:13;;;;;;;6.28;2.80;;;;;;;20.12;30.50;100913.08;1761624;80;21582;-57
2021/04/29 12:33:25;;;;;;;;;;;;;;;20.19;29.54;100914.75;1764976;81;21734;-59
2021/04/29 12:36:32;;;;;;;7.53;2.60;;;;;;;20.28;29.42;100902.83;1765482;80;20380;-58
2021/04/29 12:39:41;;;;;;;7.30;2.65;;;;;;;20.27;29.08;100908.06;1770602;80;21192;-59
2021/04/29 12:42:46;;;;;;;5.65;2.20;;;;;;;20.23;28.38;100899.88;1771485;81;22172;-58
2021/04/29 12:46:03;;;;;;;4.65;2.40;;;;;;;20.26;28.65;100892.46;1771907;80;21927;-58
2021/04/29 12:49:15;;;;;;;8.43;2.40;;;;;;;20.30;28.10;100893.16;1791557;79;21414;-57
2021/04/29 12:52:22;;;;;;;5.12;2.47;;;;;;;20.23;27.57;100897.09;1792918;79;21394;-58
2021/04/29 12:55:29;;;;;;;9.45;2.30;;;;;;;20.13;27.46;100892.00;1804040;79;21228;-58
2021/04/29 12:58:39;;;;;;;5.72;2.40;;;;;;;20.07;28.84;100885.95;1802803;79;21366;-59
2021/04/29 13:01:52;;;;;;;6.00;2.47;;;;;;;20.12;28.96;100886.66;1803467;79;21367;-59
2021/04/29 13:05:13;;;;;;;5.40;2.40;;;;;;;20.22;29.09;100873.12;1802748;79;21406;-59
2021/04/29 13:08:19;;;;;;;7.08;2.30;;;;;;;20.45;28.97;100871.44;1772921;79;21869;-59
2021/04/29 13:11:52;;;;;;;3.92;2.00;;;;;;;20.54;28.59;100864.50;1802526;79;21728;-60
2021/04/29 13:15:12;;;;;;;7.22;2.98;;;;;;;20.54;28.22;100862.25;1803170;79;21405;-58
2021/04/29 13:18:19;;;;;;;5.67;2.50;;;;;;;20.61;28.49;100869.44;1773358;79;21197;-60
2021/04/29 13:21:26;;;;;;;3.47;2.40;;;;;;;20.76;26.88;100867.69;1767994;81;21336;-60
2021/04/29 13:24:30;;;;;;;6.87;3.10;;;;;;;20.69;27.39;100861.36;1768708;80;21316;-60
2021/04/29 13:27:37;;;;;;;5.45;2.37;;;;;;;20.78;27.46;100862.75;1802587;79;21888;-60
2021/04/29 13:30:44;;;;;;;3.70;2.30;;;;;;;20.88;27.95;100853.87;1799411;79;21354;-60
2021/04/29 13:33:50;;;;;;;5.12;2.17;;;;;;;20.87;26.84;100854.39;1794702;79;21575;-61
2021/04/29 13:36:56;;;;;;;4.42;2.90;;;;;;;20.85;26.33;100852.41;1779283;79;21303;-60
2021/04/29 13:40:05;;;;;;;3.35;2.12;;;;;;;20.85;27.11;100851.55;1706217;83;21232;-64
2021/04/29 13:43:12;;;;;;;5.03;2.33;;;;;;;20.84;26.78;100842.34;1705238;83;21255;-59
2021/04/29 13:46:18;;;;;;;4.03;2.20;;;;;;;21.00;26.51;100845.07;1790129;79;21351;-59
2021/04/29 13:49:24;;;;;;;5.20;2.62;;;;;;;21.12;26.67;100842.66;1705849;83;21248;-59
2021/04/29 13:52:30;;;;;;;3.90;2.30;;;;;;;21.40;26.05;100840.17;1748326;80;21243;-62
2021/04/29 13:55:36;;;;;;;6.28;2.47;;;;;;;21.69;26.03;100831.51;1779735;79;21915;-60
2021/04/29 13:58:43;;;;;;;3.52;2.08;;;;;;;21.95;25.64;100833.91;1790852;80;21331;-59
2021/04/29 14:01:51;;;;;;;4.62;2.55;;;;;;;21.96;25.34;100830.88;1790759;80;21472;-61
2021/04/29 14:04:57;;;;;;;5.05;2.25;;;;;;;22.13;24.82;100827.72;1790854;79;21702;-60
2021/04/29 14:08:04;;;;;;;2.70;1.92;;;;;;;22.39;24.57;100825.55;1790660;80;21351;-62
2021/04/29 14:11:10;;;;;;;5.80;2.30;;;;;;;22.37;25.30;100822.15;1786739;80;21390;-62
2021/04/29 14:14:15;;;;;;;5.85;2.72;;;;;;;22.35;24.98;100815.41;1769515;80;21364;-62
2021/04/29 14:17:22;;;;;;;4.53;2.20;;;;;;;22.33;25.10;100819.52;1768390;80;21205;-62
2021/04/29 14:20:30;;;;;;;13.28;3.50;;;;;;;21.89;25.72;100820.92;1768297;81;21739;-62
2021/04/29 14:23:38;;;;;;;6.42;3.02;;;;;;;21.62;26.58;100819.06;1768591;81;21189;-64
2021/04/29 14:26:46;;;;;;;4.37;2.33;;;;;;;21.19;26.88;100811.95;1777730;79;21286;-62
2021/04/29 14:29:53;;;;;;;5.87;2.75;;;;;;;21.14;27.75;100809.02;1787705;79;21252;-61